Meteo Giornale » Osservazioni meteo Stati Uniti (USA) » Abilene Dyess
ore: 07:55 - Osservazioni Meteo Abilene Dyess
Lat. 32° 25' N Lon. 99° 51' W Alt. 545 metri s.l.m.
26 °C
Sereno
Temp. 24 Ore
25 °C
38 °C
Sud/Sud-Est
22.2 Km/h
Dew point 17 °C
Umidità 57 %
Visibilità 10 Km
Il sole sorge alle ore 07:14
Il sole tramonta alle ore 20:04
| Data e Ora | Cielo e Fenomeni | T °C | DP °C | Um. % | Pres. hPa | Vis. km | Vento km/h | |
|---|---|---|---|---|---|---|---|---|
| Oggi h: 07:55 | Sereno | 26 | 17 | 57 | 1017 | 10 | S/SE 22.2 | |
| Oggi h: 06:55 | Poco Nuvoloso | 25 | 17 | 61 | 1016 | 10 | S/SE 20.3 | |
| Oggi h: 05:55 | Poco Nuvoloso | 26 | 17 | 57 | 1016 | 10 | S/SE 16.7 | |
| Oggi h: 04:55 | Sereno | 26 | 16 | 54 | 1016 | 10 | S/SE 18.5 | |
| Oggi h: 03:55 | Sereno | 27 | 15 | 47 | 1016 | 10 | S 24 | |
| Oggi h: 02:55 | Sereno | 27 | 15 | 47 | 1016 | 10 | S/SE 14.8 | |
| Oggi h: 01:55 | Sereno | 27 | 15 | 47 | 1016 | 10 | S 16.7 | |
| Oggi h: 00:55 | Sereno | 27 | 14 | 44 | 1015 | 10 | S 13 | |
| Ieri h: 23:55 | Sereno | 30 | 14 | 37 | 1015 | 10 | S/SE 18.5 | |
| Ieri h: 22:55 | Sereno | 31 | 13 | 33 | 1015 | 10 | S/SE 20.3 | |
| Ieri h: 21:55 | Sereno | 32 | 12 | 29 | 1014 | 10 | SE 16.7 | |
| Ieri h: 20:55 | Sereno | 33 | 12 | 27 | 1013 | 10 | SE 20.3 | |
| Ieri h: 19:55 | Sereno | 35 | 11 | 23 | 1013 | 10 | E/SE 24 | |
| Ieri h: 18:55 | Poco Nuvoloso | 36 | 11 | 22 | 1012 | 10 | S/SE 13 | |
| Ieri h: 18:05 | Nuvoloso | 37 | 11 | 20 | 1012 | 10 | E/SE 20.3 | |
| Ieri h: 17:55 | Nuvoloso | 38 | 11 | 19 | 1012 | 10 | S/SE 9.3 | |
| Ieri h: 16:55 | Molto Nuvoloso | 37 | 11 | 20 | 1013 | 10 | S/SE 14.8 | |
| Ieri h: 16:04 | Poco Nuvoloso | 37 | 13 | 23 | 1014 | 10 | S/SE 25.9 | |
| Ieri h: 15:55 | Poco Nuvoloso | 36 | 13 | 25 | 1014 | 10 | S/SE 20.3 | |
| Ieri h: 15:40 | Nuvoloso | 36 | 14 | 26 | 1014 | 10 | S/SE 20.3 | |
| Ieri h: 15:31 | Poco Nuvoloso | 36 | 14 | 26 | 1014 | 10 | E/SE 20.3 | |
| Ieri h: 15:11 | Nuvoloso | 36 | 14 | 26 | 1015 | 10 | S/SE 20.3 | |
| Ieri h: 14:55 | Molto Nuvoloso | 37 | 13 | 23 | 1015 | 10 | S/SE 18.5 | |
| Ieri h: 14:25 | Poco Nuvoloso | 37 | 14 | 25 | 1015 | 10 | S 18.5 | |
| Ieri h: 14:02 | Sereno | 36 | 15 | 28 | 1015 | 10 | S 24 | |
| Ieri h: 13:55 | Poco Nuvoloso | 35 | 14 | 28 | 1015 | 10 | S/SE 13 | |
| Ieri h: 13:04 | Molto Nuvoloso | 35 | 15 | 30 | 1016 | 10 | S/SO 20.3 | |
| Ieri h: 12:55 | Nuvoloso | 34 | 15 | 32 | 1016 | 10 | S 9.3 | |
| Ieri h: 11:55 | Sereno | 34 | 17 | 36 | 1017 | 10 | S 20.3 | |
| Ieri h: 10:55 | Sereno | 32 | 18 | 43 | 1016 | 10 | S 22.2 | |
| Ieri h: 09:55 | Sereno | 30 | 19 | 51 | 1016 | 10 | S/SO 24 | |
| Ieri h: 08:55 | Sereno | 28 | 19 | 58 | 1016 | 10 | S 27.8 | |



